Wetterdaten: Woche 14.05.18 - 20.05.18 (KW20)
Datum Zeit Temperatur Luftfeuchte Luftdruck Niederschlag Windrichtung Sonnenschein Solar Wind
14.05.2018 00:00 13,1 C 97 % 1004,0 hPa 0,0 l/m S-SW 0,00 h 0 W/m 0,9 km/h (0 Bft)
14.05.2018 01:00 12,2 C 98 % 1004,0 hPa 0,0 l/m SW 0,00 h 0 W/m 7,1 km/h (2 Bft)
14.05.2018 02:00 11,4 C 98 % 1004,5 hPa 0,0 l/m SW 0,00 h 0 W/m 13,7 km/h (3 Bft)
14.05.2018 03:00 10,8 C 98 % 1004,5 hPa 0,4 l/m SW 0,00 h 0 W/m 4,2 km/h (1 Bft)
14.05.2018 04:00 10,6 C 99 % 1004,3 hPa 0,0 l/m S-SW 0,00 h 0 W/m 7,1 km/h (2 Bft)
14.05.2018 05:00 10,1 C 99 % 1004,3 hPa 0,2 l/m S-SW 0,00 h 0 W/m 10,5 km/h (2 Bft)
14.05.2018 06:00 9,8 C 99 % 1004,6 hPa 0,0 l/m SW 0,00 h 12 W/m 6,6 km/h (2 Bft)
14.05.2018 07:00 9,6 C 99 % 1004,9 hPa 0,0 l/m SW 0,00 h 30 W/m 4,2 km/h (1 Bft)
14.05.2018 08:00 9,8 C 99 % 1004,8 hPa 0,0 l/m N 0,00 h 91 W/m 0,4 km/h (0 Bft)
14.05.2018 09:00 10,2 C 99 % 1005,1 hPa 0,0 l/m SW 0,00 h 94 W/m 7,0 km/h (2 Bft)
14.05.2018 10:00 10,9 C 99 % 1005,5 hPa 0,0 l/m SW 0,08 h 260 W/m 3,1 km/h (1 Bft)
14.05.2018 11:00 12,2 C 97 % 1005,4 hPa 0,0 l/m SW 0,00 h 190 W/m 5,5 km/h (1 Bft)
14.05.2018 12:00 12,0 C 97 % 1005,9 hPa 0,0 l/m SW 0,00 h 161 W/m 10,4 km/h (2 Bft)
14.05.2018 13:00 11,9 C 97 % 1006,1 hPa 0,0 l/m SW 0,00 h 168 W/m 10,2 km/h (2 Bft)
14.05.2018 14:00 12,1 C 97 % 1006,3 hPa 0,0 l/m S-SW 0,00 h 113 W/m 9,5 km/h (2 Bft)
14.05.2018 15:00 12,3 C 98 % 1006,1 hPa 0,0 l/m S-SW 0,00 h 103 W/m 3,3 km/h (1 Bft)
14.05.2018 16:00 12,9 C 98 % 1006,1 hPa 0,0 l/m S-SW 0,00 h 97 W/m 3,6 km/h (1 Bft)
14.05.2018 17:00 12,8 C 98 % 1006,0 hPa 0,0 l/m SW 0,00 h 98 W/m 6,8 km/h (2 Bft)
14.05.2018 18:00 14,0 C 97 % 1005,7 hPa 0,0 l/m W-NW 0,75 h 235 W/m 10,6 km/h (2 Bft)
14.05.2018 19:00 13,3 C 95 % 1005,9 hPa 0,0 l/m SW 0,00 h 40 W/m 10,6 km/h (2 Bft)
14.05.2018 20:00 11,9 C 97 % 1006,3 hPa 4,0 l/m SW 0,00 h 0 W/m 12,0 km/h (2 Bft)
14.05.2018 21:00 11,1 C 98 % 1007,4 hPa 2,8 l/m SW 0,00 h 0 W/m 15,7 km/h (3 Bft)
14.05.2018 22:00 10,7 C 98 % 1007,4 hPa 0,0 l/m SW 0,00 h 0 W/m 11,1 km/h (2 Bft)
14.05.2018 23:00 10,8 C 98 % 1008,2 hPa 0,0 l/m W-SW 0,00 h 0 W/m 4,0 km/h (1 Bft)
15.05.2018 00:00 10,7 C 98 % 1008,0 hPa 0,0 l/m W-SW 0,00 h 0 W/m 3,6 km/h (1 Bft)
15.05.2018 01:00 10,7 C 98 % 1007,8 hPa 0,0 l/m S-SW 0,00 h 0 W/m 4,7 km/h (1 Bft)
15.05.2018 02:00 10,2 C 98 % 1007,6 hPa 0,0 l/m SW 0,00 h 0 W/m 12,9 km/h (3 Bft)
15.05.2018 03:00 10,1 C 99 % 1007,6 hPa 0,0 l/m SW 0,00 h 0 W/m 7,7 km/h (2 Bft)
15.05.2018 04:00 9,8 C 98 % 1007,8 hPa 0,0 l/m SW 0,00 h 0 W/m 5,1 km/h (1 Bft)
15.05.2018 05:00 9,7 C 98 % 1007,9 hPa 0,0 l/m N 0,00 h 0 W/m 0,8 km/h (0 Bft)
15.05.2018 06:00 9,8 C 99 % 1008,3 hPa 0,0 l/m N 0,00 h 18 W/m 0,5 km/h (0 Bft)
15.05.2018 07:00 10,1 C 99 % 1008,6 hPa 0,0 l/m N 0,00 h 45 W/m 0,0 km/h (0 Bft)
15.05.2018 08:00 10,5 C 99 % 1008,9 hPa 0,0 l/m N 0,00 h 82 W/m 0,3 km/h (0 Bft)
15.05.2018 09:00 11,0 C 98 % 1009,3 hPa 0,0 l/m SW 0,00 h 109 W/m 2,4 km/h (1 Bft)
15.05.2018 10:00 11,7 C 98 % 1009,7 hPa 0,6 l/m O-SO 0,00 h 154 W/m 5,2 km/h (1 Bft)
15.05.2018 11:00 14,2 C 89 % 1009,4 hPa 0,0 l/m O-SO 1,00 h 794 W/m 7,2 km/h (2 Bft)
15.05.2018 12:00 16,2 C 74 % 1009,4 hPa 0,0 l/m O-NO 0,67 h 755 W/m 16,1 km/h (3 Bft)
15.05.2018 13:00 16,2 C 70 % 1008,8 hPa 0,0 l/m NO 0,17 h 303 W/m 9,4 km/h (2 Bft)
15.05.2018 14:00 15,4 C 75 % 1008,6 hPa 0,0 l/m N-NW 0,17 h 298 W/m 11,4 km/h (2 Bft)
15.05.2018 15:00 15,2 C 76 % 1008,6 hPa 0,0 l/m NW 0,08 h 273 W/m 16,5 km/h (3 Bft)
15.05.2018 16:00 14,1 C 78 % 1009,1 hPa 0,2 l/m N-NO 0,00 h 131 W/m 21,2 km/h (4 Bft)
15.05.2018 17:00 10,8 C 87 % 1010,3 hPa 1,4 l/m S-SW 0,00 h 42 W/m 12,3 km/h (3 Bft)
15.05.2018 18:00 9,9 C 92 % 1010,3 hPa 1,2 l/m SW 0,00 h 25 W/m 10,3 km/h (2 Bft)
15.05.2018 19:00 10,0 C 95 % 1010,0 hPa 0,2 l/m W-SW 0,17 h 74 W/m 2,5 km/h (1 Bft)
15.05.2018 20:00 9,4 C 95 % 1010,7 hPa 0,0 l/m NW 0,00 h 10 W/m 0,3 km/h (0 Bft)
15.05.2018 21:00 9,2 C 96 % 1011,4 hPa 0,0 l/m W 0,00 h 0 W/m 9,5 km/h (2 Bft)
15.05.2018 22:00 9,2 C 96 % 1011,8 hPa 0,4 l/m W 0,00 h 0 W/m 2,1 km/h (1 Bft)
15.05.2018 23:00 9,1 C 97 % 1011,9 hPa 0,2 l/m W 0,00 h 0 W/m 1,2 km/h (1 Bft)
16.05.2018 00:00 8,9 C 98 % 1012,0 hPa 0,0 l/m W-SW 0,00 h 0 W/m 4,2 km/h (1 Bft)
16.05.2018 01:00 8,8 C 98 % 1011,8 hPa 0,0 l/m N 0,00 h 0 W/m 0,4 km/h (0 Bft)
16.05.2018 02:00 8,9 C 98 % 1011,7 hPa 0,0 l/m W-SW 0,00 h 0 W/m 5,9 km/h (2 Bft)
16.05.2018 03:00 8,9 C 98 % 1011,3 hPa 0,0 l/m W-SW 0,00 h 0 W/m 4,9 km/h (1 Bft)
16.05.2018 04:00 9,0 C 99 % 1011,2 hPa 0,0 l/m W-SW 0,00 h 0 W/m 6,2 km/h (2 Bft)
16.05.2018 05:00 9,1 C 99 % 1011,1 hPa 0,2 l/m W-SW 0,00 h 0 W/m 6,3 km/h (2 Bft)
16.05.2018 06:00 8,9 C 99 % 1011,1 hPa 0,0 l/m SW 0,00 h 10 W/m 10,7 km/h (2 Bft)
16.05.2018 07:00 9,1 C 99 % 1011,2 hPa 1,0 l/m SW 0,00 h 24 W/m 2,5 km/h (1 Bft)
16.05.2018 08:00 9,4 C 99 % 1011,1 hPa 1,2 l/m SW 0,00 h 99 W/m 10,3 km/h (2 Bft)
16.05.2018 09:00 9,9 C 98 % 1011,1 hPa 0,6 l/m W-SW 0,00 h 117 W/m 14,2 km/h (3 Bft)
16.05.2018 10:00 10,5 C 98 % 1011,1 hPa 0,4 l/m W-SW 0,00 h 182 W/m 12,5 km/h (3 Bft)
16.05.2018 11:00 11,2 C 97 % 1011,2 hPa 0,0 l/m W-SW 0,00 h 181 W/m 11,1 km/h (2 Bft)
16.05.2018 12:00 10,9 C 96 % 1011,8 hPa 1,2 l/m W-SW 0,00 h 103 W/m 6,2 km/h (2 Bft)
16.05.2018 13:00 11,3 C 97 % 1012,0 hPa 0,0 l/m W-SW 0,08 h 230 W/m 3,3 km/h (1 Bft)
16.05.2018 14:00 12,1 C 94 % 1012,1 hPa 4,6 l/m S-SW 0,17 h 180 W/m 10,3 km/h (2 Bft)
16.05.2018 15:00 11,3 C 97 % 1012,3 hPa 0,6 l/m NW 0,00 h 185 W/m 2,5 km/h (1 Bft)
16.05.2018 16:00 11,8 C 96 % 1012,5 hPa 0,0 l/m SW 0,08 h 202 W/m 5,2 km/h (1 Bft)
16.05.2018 17:00 11,9 C 96 % 1012,6 hPa 0,4 l/m W-SW 0,08 h 136 W/m 12,0 km/h (2 Bft)
16.05.2018 18:00 11,6 C 97 % 1012,7 hPa 0,0 l/m W-SW 0,00 h 68 W/m 13,7 km/h (3 Bft)
16.05.2018 19:00 11,3 C 97 % 1012,9 hPa 0,2 l/m W-SW 0,00 h 42 W/m 9,1 km/h (2 Bft)
16.05.2018 20:00 10,6 C 97 % 1013,5 hPa 1,6 l/m W 0,00 h 10 W/m 1,6 km/h (1 Bft)
16.05.2018 21:00 10,1 C 98 % 1013,9 hPa 0,0 l/m W 0,00 h 0 W/m 1,1 km/h (0 Bft)
16.05.2018 22:00 9,8 C 98 % 1014,3 hPa 0,0 l/m N 0,00 h 0 W/m 0,0 km/h (0 Bft)
16.05.2018 23:00 9,6 C 98 % 1014,6 hPa 0,2 l/m N 0,00 h 0 W/m 0,0 km/h (0 Bft)
17.05.2018 00:00 9,5 C 99 % 1014,6 hPa 0,0 l/m N 0,00 h 0 W/m 0,9 km/h (0 Bft)
17.05.2018 01:00 9,6 C 99 % 1014,5 hPa 0,0 l/m W 0,00 h 0 W/m 0,9 km/h (0 Bft)
17.05.2018 02:00 9,7 C 99 % 1014,2 hPa 0,0 l/m W 0,00 h 0 W/m 6,0 km/h (2 Bft)
17.05.2018 03:00 9,7 C 99 % 1014,0 hPa 0,0 l/m W 0,00 h 0 W/m 3,3 km/h (1 Bft)
17.05.2018 04:00 9,8 C 99 % 1013,8 hPa 2,0 l/m W-SW 0,00 h 0 W/m 9,8 km/h (2 Bft)
17.05.2018 05:00 9,7 C 99 % 1013,7 hPa 0,8 l/m W-SW 0,00 h 7 W/m 3,2 km/h (1 Bft)
17.05.2018 06:00 9,7 C 99 % 1014,1 hPa 1,4 l/m W-SW 0,00 h 14 W/m 2,8 km/h (1 Bft)
17.05.2018 07:00 9,9 C 99 % 1014,2 hPa 1,0 l/m W-SW 0,00 h 33 W/m 4,7 km/h (1 Bft)
17.05.2018 08:00 10,5 C 99 % 1014,4 hPa 0,4 l/m W-SW 0,00 h 170 W/m 5,9 km/h (2 Bft)
17.05.2018 09:00 11,0 C 99 % 1014,9 hPa 0,0 l/m W-SW 0,00 h 125 W/m 4,6 km/h (1 Bft)
17.05.2018 10:00 11,5 C 98 % 1015,2 hPa 0,0 l/m W-SW 0,25 h 252 W/m 7,4 km/h (2 Bft)
17.05.2018 11:00 12,2 C 96 % 1015,4 hPa 0,0 l/m W-SW 0,00 h 128 W/m 8,2 km/h (2 Bft)
17.05.2018 12:00 11,9 C 97 % 1015,7 hPa 1,0 l/m W-SW 0,00 h 195 W/m 4,7 km/h (1 Bft)
17.05.2018 13:00 13,2 C 96 % 1015,7 hPa 0,0 l/m S-SW 0,42 h 412 W/m 12,6 km/h (3 Bft)
17.05.2018 14:00 12,9 C 96 % 1015,8 hPa 0,2 l/m SW 0,00 h 154 W/m 7,9 km/h (2 Bft)
17.05.2018 15:00 12,6 C 97 % 1016,0 hPa 0,0 l/m SW 0,00 h 119 W/m 6,3 km/h (2 Bft)
17.05.2018 16:00 13,5 C 94 % 1015,9 hPa 0,0 l/m W-SW 0,17 h 246 W/m 3,6 km/h (1 Bft)
17.05.2018 17:00 13,7 C 92 % 1016,1 hPa 0,0 l/m N 0,00 h 167 W/m 7,9 km/h (2 Bft)
17.05.2018 18:00 13,2 C 91 % 1016,4 hPa 0,0 l/m N-NO 0,00 h 119 W/m 13,6 km/h (3 Bft)
17.05.2018 19:00 12,8 C 91 % 1016,6 hPa 0,0 l/m N 0,25 h 117 W/m 6,3 km/h (2 Bft)
17.05.2018 20:00 12,1 C 93 % 1017,0 hPa 0,0 l/m N 0,00 h 21 W/m 0,0 km/h (0 Bft)
17.05.2018 21:00 10,8 C 96 % 1017,4 hPa 0,0 l/m N 0,00 h 0 W/m 0,0 km/h (0 Bft)
17.05.2018 22:00 10,1 C 98 % 1017,8 hPa 0,0 l/m N 0,00 h 0 W/m 0,0 km/h (0 Bft)
17.05.2018 23:00 9,4 C 98 % 1017,8 hPa 0,0 l/m N 0,00 h 0 W/m 0,0 km/h (0 Bft)
18.05.2018 00:00 8,8 C 99 % 1017,8 hPa 0,0 l/m N 0,00 h 0 W/m 0,0 km/h (0 Bft)
18.05.2018 01:00 8,9 C 99 % 1017,7 hPa 0,0 l/m N 0,00 h 0 W/m 0,0 km/h (0 Bft)
18.05.2018 02:00 8,8 C 99 % 1017,5 hPa 0,0 l/m N 0,00 h 0 W/m 0,0 km/h (0 Bft)
18.05.2018 03:00 8,5 C 99 % 1017,2 hPa 0,0 l/m N 0,00 h 0 W/m 0,0 km/h (0 Bft)
18.05.2018 04:00 8,1 C 99 % 1017,2 hPa 0,0 l/m N 0,00 h 0 W/m 0,0 km/h (0 Bft)
18.05.2018 05:00 7,8 C 99 % 1017,1 hPa 0,0 l/m N 0,00 h 6 W/m 0,0 km/h (0 Bft)
18.05.2018 06:00 7,7 C 99 % 1017,4 hPa 0,0 l/m N 0,00 h 22 W/m 0,0 km/h (0 Bft)
18.05.2018 07:00 8,3 C 100 % 1017,7 hPa 0,4 l/m N 0,00 h 43 W/m 0,0 km/h (0 Bft)
18.05.2018 08:00 9,5 C 100 % 1017,8 hPa 0,0 l/m N 0,00 h 129 W/m 0,0 km/h (0 Bft)
18.05.2018 09:00 10,9 C 99 % 1017,9 hPa 0,0 l/m N 0,17 h 287 W/m 0,0 km/h (0 Bft)
18.05.2018 10:00 13,6 C 90 % 1017,7 hPa 0,0 l/m N 1,00 h 662 W/m 3,2 km/h (1 Bft)
18.05.2018 11:00 15,5 C 80 % 1017,5 hPa 0,0 l/m N-NO 0,58 h 599 W/m 5,3 km/h (1 Bft)
18.05.2018 12:00 16,6 C 74 % 1017,4 hPa 0,0 l/m O-NO 0,42 h 580 W/m 2,0 km/h (1 Bft)
18.05.2018 13:00 18,1 C 69 % 1017,0 hPa 0,0 l/m O-NO 0,67 h 771 W/m 7,8 km/h (2 Bft)
18.05.2018 14:00 19,3 C 63 % 1016,4 hPa 0,0 l/m O-NO 0,75 h 738 W/m 9,6 km/h (2 Bft)
18.05.2018 15:00 20,3 C 57 % 1015,8 hPa 0,0 l/m O 0,75 h 640 W/m 12,8 km/h (3 Bft)
18.05.2018 16:00 20,8 C 51 % 1015,2 hPa 0,0 l/m O 1,00 h 633 W/m 13,2 km/h (3 Bft)
18.05.2018 17:00 20,3 C 54 % 1014,9 hPa 0,0 l/m NO 0,42 h 306 W/m 11,8 km/h (2 Bft)
18.05.2018 18:00 19,0 C 61 % 1015,0 hPa 0,0 l/m NO 0,17 h 161 W/m 11,1 km/h (2 Bft)
18.05.2018 19:00 18,5 C 63 % 1015,1 hPa 0,0 l/m NO 0,92 h 153 W/m 7,9 km/h (2 Bft)
18.05.2018 20:00 17,6 C 66 % 1015,2 hPa 0,0 l/m NO 0,50 h 31 W/m 6,3 km/h (2 Bft)
18.05.2018 21:00 15,6 C 69 % 1015,8 hPa 0,0 l/m N-NO 0,00 h 0 W/m 8,3 km/h (2 Bft)
18.05.2018 22:00 14,1 C 73 % 1016,3 hPa 0,0 l/m N-NO 0,00 h 0 W/m 4,3 km/h (1 Bft)
18.05.2018 23:00 13,1 C 79 % 1016,3 hPa 0,0 l/m N-NO 0,00 h 0 W/m 2,0 km/h (1 Bft)
19.05.2018 00:00 12,4 C 83 % 1016,2 hPa 0,0 l/m N-NO 0,00 h 0 W/m 6,1 km/h (2 Bft)
19.05.2018 01:00 12,0 C 85 % 1016,2 hPa 0,0 l/m N-NO 0,00 h 0 W/m 4,5 km/h (1 Bft)
19.05.2018 02:00 11,3 C 88 % 1015,9 hPa 0,0 l/m N-NO 0,00 h 0 W/m 4,1 km/h (1 Bft)
19.05.2018 03:00 10,4 C 90 % 1015,8 hPa 0,0 l/m N-NO 0,00 h 0 W/m 6,0 km/h (2 Bft)
19.05.2018 04:00 9,7 C 92 % 1015,5 hPa 0,0 l/m N-NO 0,00 h 0 W/m 7,8 km/h (2 Bft)
19.05.2018 05:00 8,9 C 94 % 1015,4 hPa 0,0 l/m N-NO 0,08 h 9 W/m 5,1 km/h (1 Bft)
19.05.2018 06:00 8,5 C 96 % 1015,9 hPa 0,0 l/m N-NO 0,00 h 46 W/m 3,3 km/h (1 Bft)
19.05.2018 07:00 10,0 C 93 % 1015,9 hPa 0,0 l/m N-NO 1,00 h 206 W/m 6,8 km/h (2 Bft)
19.05.2018 08:00 12,1 C 85 % 1016,0 hPa 0,0 l/m NO 1,00 h 330 W/m 8,7 km/h (2 Bft)
19.05.2018 09:00 13,3 C 79 % 1016,0 hPa 0,0 l/m O-NO 0,00 h 269 W/m 10,7 km/h (2 Bft)
19.05.2018 10:00 14,0 C 77 % 1016,3 hPa 0,0 l/m NO 0,25 h 401 W/m 10,1 km/h (2 Bft)
19.05.2018 11:00 15,4 C 73 % 1016,3 hPa 0,0 l/m NO 0,50 h 426 W/m 12,9 km/h (3 Bft)
19.05.2018 12:00 16,4 C 71 % 1016,1 hPa 0,0 l/m N-NO 0,50 h 479 W/m 12,2 km/h (2 Bft)
19.05.2018 13:00 17,7 C 68 % 1015,5 hPa 0,0 l/m O-NO 0,67 h 507 W/m 14,0 km/h (3 Bft)
19.05.2018 14:00 18,6 C 66 % 1014,9 hPa 0,0 l/m O-NO 0,58 h 505 W/m 13,8 km/h (3 Bft)
19.05.2018 15:00 19,0 C 64 % 1014,8 hPa 0,0 l/m NO 0,67 h 511 W/m 16,2 km/h (3 Bft)
19.05.2018 16:00 17,8 C 69 % 1014,7 hPa 1,2 l/m N-NO 0,00 h 115 W/m 16,6 km/h (3 Bft)
19.05.2018 17:00 13,5 C 86 % 1014,9 hPa 2,8 l/m N 0,00 h 38 W/m 12,1 km/h (2 Bft)
19.05.2018 18:00 12,6 C 91 % 1016,1 hPa 2,2 l/m S-SW 0,00 h 13 W/m 10,2 km/h (2 Bft)
19.05.2018 19:00 11,2 C 94 % 1016,6 hPa 5,0 l/m O-SO 0,00 h 17 W/m 9,5 km/h (2 Bft)
19.05.2018 20:00 10,8 C 95 % 1016,6 hPa 1,0 l/m O-SO 0,00 h 12 W/m 15,3 km/h (3 Bft)
19.05.2018 21:00 10,9 C 93 % 1017,1 hPa 0,0 l/m NO 0,00 h 0 W/m 12,3 km/h (3 Bft)
19.05.2018 22:00 10,6 C 94 % 1017,5 hPa 0,2 l/m NO 0,00 h 0 W/m 6,3 km/h (2 Bft)
19.05.2018 23:00 10,3 C 95 % 1017,5 hPa 0,0 l/m NO 0,00 h 0 W/m 6,0 km/h (2 Bft)
20.05.2018 00:00 10,2 C 96 % 1017,3 hPa 0,0 l/m N-NO 0,00 h 0 W/m 4,3 km/h (1 Bft)
20.05.2018 01:00 9,9 C 97 % 1017,3 hPa 0,0 l/m N 0,00 h 0 W/m 0,8 km/h (0 Bft)
20.05.2018 02:00 10,0 C 98 % 1017,2 hPa 0,0 l/m N-NO 0,00 h 0 W/m 0,9 km/h (0 Bft)
20.05.2018 03:00 10,3 C 98 % 1016,8 hPa 0,0 l/m N-NO 0,00 h 0 W/m 5,9 km/h (2 Bft)
20.05.2018 04:00 10,2 C 98 % 1016,3 hPa 0,2 l/m N-NO 0,00 h 0 W/m 2,5 km/h (1 Bft)
20.05.2018 05:00 10,4 C 98 % 1016,2 hPa 0,0 l/m N-NO 0,00 h 0 W/m 6,1 km/h (2 Bft)
20.05.2018 06:00 10,6 C 98 % 1016,4 hPa 0,0 l/m N-NO 0,00 h 17 W/m 6,1 km/h (2 Bft)
20.05.2018 07:00 10,9 C 98 % 1016,7 hPa 0,0 l/m N-NO 0,00 h 46 W/m 5,5 km/h (1 Bft)
20.05.2018 08:00 11,4 C 98 % 1016,8 hPa 0,0 l/m NO 0,00 h 86 W/m 4,7 km/h (1 Bft)
20.05.2018 09:00 12,2 C 96 % 1016,6 hPa 0,0 l/m NO 0,00 h 179 W/m 7,8 km/h (2 Bft)
20.05.2018 10:00 13,6 C 91 % 1016,5 hPa 0,0 l/m O-NO 0,50 h 391 W/m 11,8 km/h (2 Bft)
20.05.2018 11:00 14,7 C 85 % 1016,4 hPa 0,0 l/m O 0,17 h 377 W/m 13,3 km/h (3 Bft)
20.05.2018 12:00 15,4 C 82 % 1016,5 hPa 0,0 l/m O 0,00 h 374 W/m 13,2 km/h (3 Bft)
20.05.2018 13:00 15,7 C 81 % 1016,3 hPa 0,0 l/m O-NO 0,00 h 336 W/m 13,2 km/h (3 Bft)
20.05.2018 14:00 15,6 C 83 % 1016,1 hPa 0,0 l/m O-NO 0,00 h 295 W/m 13,3 km/h (3 Bft)
20.05.2018 15:00 16,1 C 83 % 1015,7 hPa 0,0 l/m O-NO 0,33 h 412 W/m 17,4 km/h (3 Bft)
20.05.2018 16:00 16,2 C 83 % 1015,4 hPa 0,0 l/m O-NO 0,00 h 245 W/m 15,0 km/h (3 Bft)
20.05.2018 17:00 16,7 C 81 % 1014,9 hPa 0,0 l/m O-NO 0,00 h 220 W/m 15,3 km/h (3 Bft)
20.05.2018 18:00 17,0 C 80 % 1014,6 hPa 0,0 l/m O 0,17 h 183 W/m 13,6 km/h (3 Bft)
20.05.2018 19:00 16,7 C 81 % 1014,5 hPa 0,0 l/m O-SO 0,00 h 69 W/m 7,4 km/h (2 Bft)
20.05.2018 20:00 15,8 C 86 % 1014,5 hPa 0,0 l/m O-SO 0,00 h 14 W/m 1,3 km/h (1 Bft)
20.05.2018 21:00 14,2 C 93 % 1014,4 hPa 0,0 l/m N 0,00 h 0 W/m 0,3 km/h (0 Bft)
20.05.2018 22:00 13,1 C 96 % 1014,1 hPa 0,0 l/m O-SO 0,00 h 0 W/m 1,2 km/h (1 Bft)
20.05.2018 23:00 12,7 C 96 % 1013,5 hPa 0,0 l/m O 0,00 h 0 W/m 4,0 km/h (1 Bft)
Min-Datum _ 18.05.18 18.05.18 14.05.18 - - - - 14.05.18
_ Min-Zeit 05:45 16:40 00:30 - - - - 00:00
Minimum _ 7,6 C 48 % 1003,8 hPa - - - - 0,0 km/h (0 Bft)
Max-Datum _ 18.05.18 14.05.18 18.05.18 19.05.18 - 14.05.18 16.05.18 15.05.18
_ Max-Zeit 17:05 09:00 09:05 19:20 - 10:45 14:00 16:25
Maximum _ 21,3 C 100 % 1018,0 hPa 5,0 l/m - 0,08 h 1134 W/m 27,4 km/h
N-NO (4 Bft)
Durchschnitt _ 12,0 C 91 % 1013,0 hPa #43,6 l/m SW #18:20 h 203 W/m 6,8 km/h (2 Bft)